Time;durP1;ratioP1;P1;durP2;ratioP2;P2;SDS_P1;SDS_P2;PMS_P1;PMS_P2;Temp;Humidity;BMP_temperature;BMP_pressure;BME280_temperature;BME280_humidity;BME280_pressure;Samples;Min_cycle;Max_cycle;Signal;HPM_P1;HPM_P2
2021/07/05 07:10:42;;;;;;;617.17;581.15;;;17.80;99.90;;;;;;5091221;28;20562;-68
2021/07/05 07:13:10;;;;;;;689.53;647.35;;;15.30;99.90;;;;;;5091411;28;20172;-69
2021/07/05 07:15:39;;;;;;;727.92;682.67;;;15.40;99.90;;;;;;5089975;28;20175;-69
2021/07/05 07:18:32;;;;;;;784.90;735.28;;;15.50;99.90;;;;;;5091058;28;20167;-69
2021/07/05 07:21:01;;;;;;;812.50;760.33;;;15.60;99.90;;;;;;5090843;28;20194;-69
2021/07/05 07:23:26;;;;;;;839.22;784.75;;;15.70;99.90;;;;;;5091013;28;20652;-69
2021/07/05 07:25:52;;;;;;;875.55;817.80;;;15.80;99.90;;;;;;5090898;28;20263;-69
2021/07/05 07:28:17;;;;;;;871.60;813.50;;;15.90;99.90;;;;;;5090751;28;20539;-69
2021/07/05 07:30:43;;;;;;;907.88;846.67;;;16.00;99.90;;;;;;5091012;28;20202;-69
2021/07/05 07:33:09;;;;;;;943.28;877.53;;;16.00;99.90;;;;;;5089771;28;20183;-69
2021/07/05 07:35:35;;;;;;;1004.95;932.28;;;16.00;99.90;;;;;;5090827;28;20163;-69
2021/07/05 07:38:02;;;;;;;1012.70;938.67;;;16.20;99.90;;;;;;5090730;28;20160;-69
2021/07/05 07:40:31;;;;;;;1007.78;933.42;;;16.30;99.90;;;;;;5090658;28;20164;-69
2021/07/05 07:42:56;;;;;;;997.70;924.80;;;16.30;99.90;;;;;;5090759;28;20164;-69
2021/07/05 07:45:22;;;;;;;990.65;918.65;;;16.20;99.90;;;;;;5090702;28;20639;-69
2021/07/05 07:47:48;;;;;;;969.28;900.55;;;16.30;99.90;;;;;;5090747;28;20662;-69
2021/07/05 07:50:15;;;;;;;1001.08;928.67;;;16.20;99.90;;;;;;5090440;28;20661;-69
2021/07/05 07:52:42;;;;;;;955.83;888.45;;;16.20;99.90;;;;;;5090373;28;20197;-69
2021/07/05 07:55:09;;;;;;;956.70;889.40;;;16.00;99.90;;;;;;5090355;28;20167;-69
2021/07/05 07:57:36;;;;;;;973.65;904.70;;;16.00;99.90;;;;;;5090194;28;20172;-69
2021/07/05 08:00:13;;;;;;;975.85;906.58;;;16.10;99.90;;;;;;5090370;28;20172;-69
2021/07/05 08:02:39;;;;;;;966.08;897.95;;;16.10;99.90;;;;;;5090455;28;20163;-69
2021/07/05 08:05:06;;;;;;;964.47;896.75;;;16.00;99.90;;;;;;5090208;28;20539;-69
2021/07/05 08:07:32;;;;;;;987.65;917.45;;;16.10;99.90;;;;;;5090298;28;20656;-69
2021/07/05 08:09:58;;;;;;;964.08;895.42;;;16.10;99.90;;;;;;5089975;28;20228;-69
2021/07/05 08:12:23;;;;;;;990.75;919.50;;;16.20;99.90;;;;;;5089938;28;20164;-69
2021/07/05 08:14:49;;;;;;;995.22;922.88;;;16.20;99.90;;;;;;5089996;28;20186;-69
2021/07/05 08:17:15;;;;;;;965.15;896.80;;;16.30;99.90;;;;;;5090046;28;20171;-69
2021/07/05 08:19:41;;;;;;;927.95;863.72;;;16.20;99.90;;;;;;5089963;28;20163;-69
2021/07/05 08:22:07;;;;;;;963.63;896.13;;;16.30;99.90;;;;;;5076006;28;20188;-69
2021/07/05 08:24:33;;;;;;;939.33;874.83;;;16.30;99.90;;;;;;5076218;28;20172;-69
2021/07/05 08:26:58;;;;;;;955.38;889.28;;;16.50;99.90;;;;;;5076250;28;20165;-69
2021/07/05 08:29:24;;;;;;;949.03;882.90;;;16.40;99.90;;;;;;5076192;28;20268;-69
2021/07/05 08:31:50;;;;;;;957.70;890.25;;;16.50;99.90;;;;;;5076135;28;20160;-69
2021/07/05 08:34:15;;;;;;;957.17;889.65;;;16.50;99.90;;;;;;5076249;28;20168;-69
2021/07/05 08:36:41;;;;;;;994.78;922.60;;;16.60;99.90;;;;;;5076292;28;20604;-69
2021/07/05 08:39:08;;;;;;;1013.10;939.65;;;16.70;99.90;;;;;;5074912;28;20184;-69
2021/07/05 08:41:34;;;;;;;1008.42;934.88;;;16.70;99.90;;;;;;5076128;28;20176;-69
2021/07/05 08:44:01;;;;;;;1137.97;999.90;;;16.80;99.90;;;;;;5075962;28;20161;-69
2021/07/05 08:46:28;;;;;;;1025.55;947.63;;;16.80;99.90;;;;;;5074825;28;20257;-69
2021/07/05 08:48:53;;;;;;;1041.10;960.10;;;16.90;99.90;;;;;;5074728;28;20246;-69
2021/07/05 08:51:20;;;;;;;1091.53;995.05;;;17.00;99.90;;;;;;5076003;28;20612;-69
2021/07/05 08:53:48;;;;;;;1090.63;993.75;;;17.10;99.90;;;;;;5075875;28;20161;-69
2021/07/05 08:56:14;;;;;;;1071.28;983.80;;;17.20;99.90;;;;;;5075923;28;20624;-69
2021/07/05 08:58:41;;;;;;;1081.65;990.10;;;17.30;99.90;;;;;;5075724;28;20237;-69
2021/07/05 09:01:09;;;;;;;1096.65;995.70;;;17.40;99.90;;;;;;5075840;28;20173;-69
2021/07/05 09:03:35;;;;;;;1110.53;998.83;;;17.40;99.90;;;;;;5075749;28;20172;-69
2021/07/05 09:06:16;;;;;;;1169.10;999.90;;;17.40;99.90;;;;;;5075658;28;20167;-69
2021/07/05 09:08:44;;;;;;;1173.82;999.90;;;17.50;99.90;;;;;;5075254;28;20223;-69
2021/07/05 09:11:15;;;;;;;1218.05;999.90;;;17.60;99.90;;;;;;5075723;28;20187;-69
2021/07/05 09:13:53;;;;;;;1157.03;999.90;;;17.70;99.90;;;;;;5075668;28;20635;-69
2021/07/05 09:16:32;;;;;;;1197.95;999.90;;;17.60;99.90;;;;;;5075582;28;20196;-69
2021/07/05 09:18:58;;;;;;;1179.22;999.90;;;17.60;99.90;;;;;;5075212;28;20628;-69
2021/07/05 09:21:29;;;;;;;1185.47;999.90;;;17.60;99.90;;;;;;5075206;28;20275;-69
2021/07/05 09:24:03;;;;;;;1187.65;999.90;;;17.60;99.90;;;;;;5075271;28;20203;-69
2021/07/05 09:26:40;;;;;;;1233.57;999.90;;;17.70;99.90;;;;;;5074036;28;20171;-69
2021/07/05 09:29:26;;;;;;;1201.82;999.90;;;17.60;99.90;;;;;;5075004;28;20180;-69
2021/07/05 09:31:54;;;;;;;1200.60;999.90;;;17.70;99.90;;;;;;5074344;28;20203;-69
2021/07/05 09:34:27;;;;;;;1250.80;999.90;;;17.70;99.90;;;;;;5075088;28;20516;-69
2021/07/05 09:37:19;;;;;;;1168.82;999.90;;;17.70;99.90;;;;;;5075023;28;20188;-69
2021/07/05 09:40:05;;;;;;;1095.70;996.13;;;17.70;99.90;;;;;;5074445;28;20557;-69
2021/07/05 09:42:41;;;;;;;1190.97;999.90;;;17.70;99.90;;;;;;5074940;28;20690;-69
2021/07/05 09:45:23;;;;;;;1218.57;999.90;;;17.80;99.90;;;;;;5075088;28;20175;-69
2021/07/05 09:48:18;;;;;;;1220.32;999.90;;;17.90;99.90;;;;;;5074533;28;20168;-69
2021/07/05 09:50:59;;;;;;;1176.45;999.90;;;18.10;99.90;;;;;;5074454;28;20580;-70
2021/07/05 09:53:48;;;;;;;1158.95;999.90;;;18.10;99.90;;;;;;5073307;28;20176;-69
2021/07/05 09:56:26;;;;;;;1162.10;999.90;;;18.10;99.90;;;;;;5074363;28;20164;-69
2021/07/05 09:58:58;;;;;;;1180.18;999.90;;;18.10;99.90;;;;;;5074617;28;20226;-69
2021/07/05 10:01:53;;;;;;;1092.60;996.42;;;18.20;99.90;;;;;;5074460;28;20171;-69
2021/07/05 10:04:27;;;;;;;1150.90;999.90;;;18.30;99.90;;;;;;5073256;28;20633;-69
2021/07/05 10:06:54;;;;;;;1113.47;999.90;;;18.40;99.90;;;;;;5074268;28;20172;-69
2021/07/05 10:09:31;;;;;;;1093.35;994.25;;;18.50;99.90;;;;;;5074337;28;20224;-70
2021/07/05 10:12:14;;;;;;;1095.35;997.28;;;18.40;99.90;;;;;;5074434;28;20506;-70
2021/07/05 10:14:40;;;;;;;1145.15;999.90;;;18.40;99.90;;;;;;5074402;28;20167;-69
2021/07/05 10:17:15;;;;;;;1036.28;956.45;;;20.50;99.90;;;;;;5074265;28;20160;-69
2021/07/05 10:19:41;;;;;;;1008.40;931.70;;;18.40;99.90;;;;;;5074162;28;20166;-69
2021/07/05 10:22:06;;;;;;;1108.05;999.90;;;18.30;99.90;;;;;;5074062;28;20191;-70
2021/07/05 10:24:33;;;;;;;1117.03;999.90;;;18.40;99.90;;;;;;5074146;28;20222;-69
2021/07/05 10:26:58;;;;;;;1113.13;999.90;;;18.40;99.90;;;;;;5074167;28;20183;-69
2021/07/05 10:29:24;;;;;;;1066.88;982.42;;;18.50;99.90;;;;;;5073952;28;20199;-69
2021/07/05 10:31:50;;;;;;;1016.13;940.10;;;18.50;99.90;;;;;;5073954;28;20162;-69
2021/07/05 10:34:16;;;;;;;973.35;901.85;;;18.70;99.90;;;;;;5074126;28;20179;-70
2021/07/05 10:36:42;;;;;;;988.63;916.38;;;18.70;99.90;;;;;;5073879;28;20164;-69
2021/07/05 10:39:09;;;;;;;1012.47;936.47;;;18.80;99.90;;;;;;5073939;28;20168;-69
2021/07/05 10:41:38;;;;;;;1018.60;943.03;;;19.00;99.90;;;;;;5074124;28;20183;-69
2021/07/05 10:44:09;;;;;;;906.28;844.67;;;19.00;99.90;;;;;;5073675;28;20752;-69
2021/07/05 10:46:42;;;;;;;1001.22;927.20;;;18.90;99.90;;;;;;5072705;28;20175;-70
2021/07/05 10:49:27;;;;;;;1012.40;936.65;;;18.90;99.90;;;;;;5073613;28;20653;-69
2021/07/05 10:51:54;;;;;;;982.28;910.75;;;18.90;99.90;;;;;;5073755;28;20174;-69
2021/07/05 10:54:49;;;;;;;866.95;809.30;;;18.90;99.90;;;;;;5073718;28;20171;-70
2021/07/05 10:57:19;;;;;;;826.33;771.85;;;19.00;99.90;;;;;;5072761;28;20525;-70
2021/07/05 10:59:47;;;;;;;785.97;735.42;;;19.00;99.90;;;;;;5073795;28;20168;-69
2021/07/05 11:02:38;;;;;;;893.55;833.00;;;19.10;99.90;;;;;;5073574;28;20664;-69
2021/07/05 11:05:26;;;;;;;746.05;698.85;;;19.30;99.90;;;;;;5073542;28;20225;-69
2021/07/05 11:07:53;;;;;;;783.20;732.17;;;19.50;99.90;;;;;;5073726;28;20203;-70
2021/07/05 11:10:28;;;;;;;838.55;782.90;;;19.50;99.90;;;;;;5073355;28;20262;-70
2021/07/05 11:12:58;;;;;;;901.58;840.33;;;19.60;99.90;;;;;;5073513;28;20159;-70
2021/07/05 11:15:58;;;;;;;776.17;726.83;;;19.70;99.90;;;;;;5073639;28;20168;-70
2021/07/05 11:18:36;;;;;;;695.75;652.97;;;19.80;99.90;;;;;;5073829;28;20548;-69
2021/07/05 11:21:09;;;;;;;830.03;776.60;;;20.00;99.90;;;;;;5073383;28;20682;-70
2021/07/05 11:23:57;;;;;;;753.10;706.50;;;20.10;99.90;;;;;;5073286;28;20221;-70
2021/07/05 11:26:26;;;;;;;763.42;715.78;;;20.30;99.90;;;;;;5073545;28;20171;-70
2021/07/05 11:29:13;;;;;;;784.53;735.30;;;20.40;99.90;;;;;;5073348;28;20179;-70
2021/07/05 11:31:47;;;;;;;804.35;752.75;;;20.50;99.90;;;;;;5073233;28;20168;-70
2021/07/05 11:34:33;;;;;;;826.85;773.47;;;20.50;99.90;;;;;;5073062;28;20225;-70
2021/07/05 11:37:11;;;;;;;706.83;663.47;;;20.50;99.90;;;;;;5071816;28;20172;-70
2021/07/05 11:39:42;;;;;;;896.72;835.80;;;20.50;99.90;;;;;;5072982;28;20175;-70
2021/07/05 11:42:09;;;;;;;902.58;840.95;;;20.50;99.90;;;;;;5071666;28;20569;-70
2021/07/05 11:44:53;;;;;;;913.50;850.88;;;20.60;99.90;;;;;;5072881;28;20171;-70
2021/07/05 11:47:41;;;;;;;853.13;797.25;;;20.70;99.90;;;;;;5071659;28;20262;-70
2021/07/05 11:50:22;;;;;;;767.92;719.60;;;20.80;99.90;;;;;;5072805;28;20196;-70
2021/07/05 11:53:02;;;;;;;834.25;780.08;;;20.90;99.90;;;;;;5072941;28;20175;-70
2021/07/05 11:55:35;;;;;;;759.88;712.70;;;20.90;99.90;;;;;;5072303;28;20195;-70
2021/07/05 11:58:09;;;;;;;689.10;647.50;;;21.20;99.90;;;;;;5076687;28;20515;-70
2021/07/05 12:00:38;;;;;;;832.63;777.20;;;21.40;99.90;;;;;;5076702;28;20621;-70
2021/07/05 12:03:09;;;;;;;735.63;690.17;;;21.60;99.90;;;;;;5076887;28;20176;-70
2021/07/05 12:05:36;;;;;;;766.22;718.38;;;21.80;99.90;;;;;;5075547;28;20543;-70
2021/07/05 12:08:20;;;;;;;588.95;554.70;;;21.90;99.90;;;;;;5076663;28;20195;-70
2021/07/05 12:10:46;;;;;;;559.72;528.38;;;21.80;99.90;;;;;;5076672;28;20207;-70
2021/07/05 12:13:14;;;;;;;721.38;676.83;;;21.60;99.90;;;;;;5076767;28;20670;-70
2021/07/05 12:15:53;;;;;;;676.70;636.03;;;21.50;99.90;;;;;;5076497;28;20689;-70
2021/07/05 12:18:19;;;;;;;878.80;818.03;;;21.30;99.90;;;;;;5076591;28;20160;-70
2021/07/05 12:20:55;;;;;;;992.65;919.17;;;21.10;99.90;;;;;;5076546;28;20174;-70
2021/07/05 12:23:20;;;;;;;748.88;702.78;;;21.10;99.90;;;;;;5076466;28;20182;-70
2021/07/05 12:25:46;;;;;;;669.35;629.13;;;21.00;99.90;;;;;;5076472;28;20172;-70
2021/07/05 12:28:14;;;;;;;568.97;536.50;;;20.90;99.90;;;;;;5076429;28;20216;-70
2021/07/05 12:30:47;;;;;;;506.63;479.65;;;20.70;99.90;;;;;;5076164;28;20282;-70
2021/07/05 12:33:13;;;;;;;642.03;603.90;;;20.50;99.90;;;;;;5074796;28;20227;-70
2021/07/05 12:35:39;;;;;;;647.38;608.88;;;20.30;99.90;;;;;;5076014;28;20163;-70
2021/07/05 12:38:13;;;;;;;561.20;530.10;;;20.20;99.90;;;;;;5074828;28;20648;-70
2021/07/05 12:40:41;;;;;;;818.58;765.92;;;20.10;99.90;;;;;;5075946;28;20168;-70
2021/07/05 12:43:12;;;;;;;780.10;731.13;;;20.00;99.90;;;;;;5076075;28;20614;-70
2021/07/05 12:45:55;;;;;;;789.97;740.40;;;20.00;99.90;;;;;;5075971;28;20172;-70
2021/07/05 12:48:23;;;;;;;836.35;782.53;;;20.10;99.90;;;;;;5075859;28;20560;-70
2021/07/05 12:51:01;;;;;;;775.40;726.97;;;20.00;99.90;;;;;;5075731;28;20202;-70
2021/07/05 12:53:33;;;;;;;728.33;683.75;;;19.90;99.90;;;;;;5075705;28;20160;-70
2021/07/05 12:56:03;;;;;;;781.28;732.58;;;19.90;99.90;;;;;;5075629;28;20187;-70
2021/07/05 12:58:35;;;;;;;796.40;746.25;;;19.90;99.90;;;;;;5075574;28;20186;-70
2021/07/05 13:01:01;;;;;;;839.55;785.53;;;20.00;99.90;;;;;;5074555;28;20564;-70
2021/07/05 13:03:27;;;;;;;792.78;742.80;;;20.20;99.90;;;;;;5075556;28;20164;-70
2021/07/05 13:06:05;;;;;;;831.60;778.78;;;20.30;99.90;;;;;;5075671;28;20217;-70
2021/07/05 13:08:32;;;;;;;852.53;797.35;;;20.30;99.90;;;;;;5074013;28;20254;-70
2021/07/05 13:11:16;;;;;;;834.78;781.22;;;20.40;99.90;;;;;;5075597;28;20168;-70
2021/07/05 13:13:44;;;;;;;734.92;689.95;;;20.30;99.90;;;;;;5075565;28;20190;-70
2021/07/05 13:16:17;;;;;;;778.40;730.15;;;20.20;99.90;;;;;;5075331;28;20159;-70
2021/07/05 13:18:43;;;;;;;802.65;752.25;;;20.00;99.90;;;;;;5075229;28;20246;-70
2021/07/05 13:21:08;;;;;;;911.25;851.00;;;19.90;99.90;;;;;;5075131;28;20272;-70
2021/07/05 13:23:43;;;;;;;777.88;730.03;;;19.80;99.90;;;;;;5075340;28;20578;-70
2021/07/05 13:26:09;;;;;;;890.10;831.55;;;19.80;99.90;;;;;;5075292;28;20167;-69
2021/07/05 13:28:49;;;;;;;986.97;919.63;;;19.60;99.90;;;;;;5074033;28;20172;-69
2021/07/05 13:31:37;;;;;;;1008.92;939.20;;;19.60;99.90;;;;;;5074027;28;20172;-69
2021/07/05 13:34:04;;;;;;;1039.30;965.08;;;19.40;99.90;;;;;;5075076;28;20168;-69
2021/07/05 13:36:30;;;;;;;1032.53;959.83;;;19.40;99.90;;;;;;5073729;28;20668;-70
2021/07/05 13:38:57;;;;;;;986.83;919.22;;;19.40;99.90;;;;;;5074981;28;20180;-70
2021/07/05 13:41:23;;;;;;;1054.68;978.08;;;19.40;99.90;;;;;;5073616;28;20172;-70
2021/07/05 13:43:51;;;;;;;973.58;907.38;;;19.40;99.90;;;;;;5074682;28;20172;-70
2021/07/05 13:46:18;;;;;;;1011.85;941.00;;;19.40;99.90;;;;;;5074664;28;20195;-70
2021/07/05 13:48:43;;;;;;;994.78;926.00;;;19.50;99.90;;;;;;5074586;28;20221;-70
2021/07/05 13:51:12;;;;;;;999.88;931.08;;;19.50;99.90;;;;;;5074748;28;20164;-70
2021/07/05 13:53:40;;;;;;;953.97;890.75;;;19.50;99.90;;;;;;5073841;28;20621;-70
2021/07/05 13:56:23;;;;;;;998.15;929.63;;;19.50;99.90;;;;;;5074272;28;20190;-70
2021/07/05 13:58:51;;;;;;;1027.97;955.88;;;19.40;99.90;;;;;;5074525;28;20174;-69
2021/07/05 14:01:24;;;;;;;1039.65;966.30;;;19.40;99.90;;;;;;5074171;28;20191;-69
2021/07/05 14:03:50;;;;;;;1068.70;991.92;;;19.30;99.90;;;;;;5074179;28;20160;-69
2021/07/05 14:06:17;;;;;;;1107.25;999.90;;;19.20;99.90;;;;;;5074256;28;20175;-70
2021/07/05 14:08:46;;;;;;;1165.32;999.90;;;19.10;99.90;;;;;;5073907;28;20297;-70
2021/07/05 14:11:12;;;;;;;1170.45;999.90;;;18.90;99.90;;;;;;5073843;28;20251;-70
2021/07/05 14:13:43;;;;;;;1158.55;999.90;;;18.70;99.90;;;;;;5074263;28;20172;-70
2021/07/05 14:16:11;;;;;;;1204.35;999.90;;;18.60;99.90;;;;;;5074334;28;20247;-70
2021/07/05 14:18:40;;;;;;;1196.20;999.90;;;18.50;99.90;;;;;;5073657;28;20701;-69
2021/07/05 14:21:08;;;;;;;1247.63;999.90;;;18.40;99.90;;;;;;5074073;28;20592;-69
2021/07/05 14:23:35;;;;;;;1265.50;999.90;;;18.40;99.90;;;;;;5074090;28;20241;-69
2021/07/05 14:26:00;;;;;;;1266.82;999.90;;;18.50;99.90;;;;;;5074186;28;20547;-70
2021/07/05 14:28:26;;;;;;;1282.30;999.90;;;18.50;99.90;;;;;;5074089;28;20172;-69
2021/07/05 14:30:54;;;;;;;1307.97;999.90;;;18.50;99.90;;;;;;5074040;28;20202;-70
2021/07/05 14:33:21;;;;;;;1320.70;999.90;;;18.60;99.90;;;;;;5073886;28;20166;-70
2021/07/05 14:35:47;;;;;;;1341.03;999.90;;;18.60;99.90;;;;;;5073041;28;20602;-69
2021/07/05 14:38:12;;;;;;;1335.75;999.90;;;18.70;99.90;;;;;;5073863;28;20258;-70
2021/07/05 14:40:39;;;;;;;1333.10;999.90;;;18.80;99.90;;;;;;5073895;28;20172;-69
2021/07/05 14:43:05;;;;;;;1344.10;999.90;;;18.80;99.90;;;;;;5074128;28;20183;-70
2021/07/05 14:45:31;;;;;;;1324.47;999.90;;;18.90;99.90;;;;;;5073785;28;20164;-69
2021/07/05 14:47:56;;;;;;;1355.60;999.90;;;19.00;99.90;;;;;;5073795;28;20164;-70
2021/07/05 14:50:25;;;;;;;1361.13;999.90;;;19.10;99.90;;;;;;5073687;28;20545;-70
2021/07/05 14:52:52;;;;;;;1343.40;999.90;;;19.20;99.90;;;;;;5072790;28;20513;-70
2021/07/05 14:55:19;;;;;;;1472.90;999.90;;;19.30;99.90;;;;;;5072417;28;20193;-69
2021/07/05 14:57:45;;;;;;;1415.47;999.90;;;19.30;99.90;;;;;;5073870;28;20168;-69
2021/07/05 15:00:16;;;;;;;1364.88;999.90;;;19.40;99.90;;;;;;5073481;28;20217;-70
2021/07/05 15:02:44;;;;;;;1358.15;999.90;;;19.60;99.90;;;;;;5073613;28;20226;-70
2021/07/05 15:05:10;;;;;;;1372.70;999.90;;;19.90;99.90;;;;;;5073653;28;20609;-70
2021/07/05 15:07:36;;;;;;;1357.45;999.90;;;20.20;99.90;;;;;;5073599;28;20172;-70
2021/07/05 15:10:04;;;;;;;1277.80;999.90;;;20.60;99.90;;;;;;5073271;28;20569;-70
2021/07/05 15:12:29;;;;;;;1248.75;999.90;;;20.90;99.90;;;;;;5073570;28;20172;-70
2021/07/05 15:14:55;;;;;;;1240.50;999.90;;;20.90;99.90;;;;;;5073571;28;20250;-70
2021/07/05 15:17:21;;;;;;;1225.35;999.90;;;20.90;99.90;;;;;;5073514;28;20617;-70
2021/07/05 15:19:46;;;;;;;1224.53;999.90;;;20.90;99.90;;;;;;5073568;28;20629;-70
2021/07/05 15:22:12;;;;;;;1232.97;999.90;;;20.90;99.90;;;;;;5073405;28;20238;-70
2021/07/05 15:24:37;;;;;;;1277.20;999.90;;;20.80;99.90;;;;;;5073598;28;20203;-70
2021/07/05 15:27:04;;;;;;;1306.40;999.90;;;20.90;99.90;;;;;;5073419;28;20168;-70
2021/07/05 15:29:29;;;;;;;1241.05;999.90;;;21.00;99.90;;;;;;5073425;28;20184;-70
2021/07/05 15:31:55;;;;;;;1202.63;999.90;;;21.50;99.90;;;;;;5076309;28;20496;-70
2021/07/05 15:34:20;;;;;;;1133.00;999.90;;;21.60;99.90;;;;;;5077269;28;20172;-70
2021/07/05 15:36:46;;;;;;;1161.82;999.90;;;21.70;99.90;;;;;;5077501;28;20511;-70
2021/07/05 15:39:12;;;;;;;1112.95;999.90;;;21.70;99.90;;;;;;5077180;28;20168;-70
2021/07/05 15:41:39;;;;;;;1202.72;999.90;;;21.80;99.90;;;;;;5077085;28;20560;-70
2021/07/05 15:44:05;;;;;;;1160.53;999.90;;;21.80;99.90;;;;;;5077298;28;20167;-70
2021/07/05 15:46:33;;;;;;;1039.95;961.83;;;21.80;99.90;;;;;;5077250;28;20195;-70
2021/07/05 15:48:59;;;;;;;1133.25;999.90;;;21.80;99.90;;;;;;5077192;28;20645;-70
2021/07/05 15:51:24;;;;;;;1127.97;999.90;;;21.70;99.90;;;;;;5077071;28;20172;-70
2021/07/05 15:53:50;;;;;;;1108.00;999.90;;;21.70;99.90;;;;;;5076968;28;20661;-70
2021/07/05 15:56:16;;;;;;;1096.05;998.72;;;21.60;99.90;;;;;;5076923;28;20258;-70
2021/07/05 15:58:41;;;;;;;1145.18;999.90;;;21.60;99.90;;;;;;5076792;28;20182;-70
2021/07/05 16:01:07;;;;;;;1096.60;998.70;;;21.50;99.90;;;;;;5076943;28;20164;-70
2021/07/05 16:03:33;;;;;;;1100.70;999.40;;;21.50;99.90;;;;;;5075569;28;20195;-70
2021/07/05 16:05:59;;;;;;;1113.55;999.90;;;21.40;99.90;;;;;;5076884;28;20164;-70
2021/07/05 16:08:25;;;;;;;1092.32;998.22;;;21.30;99.90;;;;;;5076598;28;20247;-70
2021/07/05 16:10:51;;;;;;;1069.55;984.90;;;21.20;99.90;;;;;;5076792;28;20172;-70
2021/07/05 16:13:20;;;;;;;1069.35;983.97;;;21.10;99.90;;;;;;5076461;28;20178;-70
2021/07/05 16:15:47;;;;;;;1002.65;929.17;;;21.00;99.90;;;;;;5076532;28;20758;-70
2021/07/05 16:18:14;;;;;;;1011.08;936.33;;;20.90;99.90;;;;;;5076623;28;20652;-70
2021/07/05 16:20:39;;;;;;;1052.45;971.70;;;20.80;99.90;;;;;;5076492;28;20195;-70
2021/07/05 16:23:05;;;;;;;1072.80;989.65;;;20.70;99.90;;;;;;5076476;28;20188;-70
2021/07/05 16:25:31;;;;;;;1070.60;987.53;;;20.60;99.90;;;;;;5075323;28;20170;-70
2021/07/05 16:27:56;;;;;;;1100.15;999.90;;;20.60;99.90;;;;;;5076383;28;20525;-70
2021/07/05 16:30:22;;;;;;;1087.88;998.38;;;20.50;99.90;;;;;;5076294;28;20182;-70
2021/07/05 16:32:48;;;;;;;1136.93;999.90;;;20.50;99.90;;;;;;5076289;28;20576;-70
2021/07/05 16:35:13;;;;;;;1109.63;999.90;;;20.50;99.90;;;;;;5076220;28;20204;-70
2021/07/05 16:37:39;;;;;;;1143.70;999.90;;;20.50;99.90;;;;;;5076225;28;20176;-70
2021/07/05 16:40:06;;;;;;;1074.05;992.17;;;20.40;99.90;;;;;;5076177;28;20668;-70
2021/07/05 16:42:32;;;;;;;1075.25;995.42;;;20.20;99.90;;;;;;5075696;28;20229;-70
2021/07/05 16:44:57;;;;;;;1079.20;998.05;;;20.20;99.90;;;;;;5075986;28;20168;-70
2021/07/05 16:47:23;;;;;;;1072.72;994.80;;;20.10;99.90;;;;;;5076026;28;20190;-70
2021/07/05 16:49:52;;;;;;;1059.90;984.78;;;20.00;99.90;;;;;;5075985;28;20171;-70
2021/07/05 16:52:29;;;;;;;1106.43;999.90;;;19.90;99.90;;;;;;5074834;28;20172;-70
2021/07/05 16:55:00;;;;;;;1111.72;999.90;;;19.90;99.90;;;;;;5075820;28;20175;-70
2021/07/05 16:57:27;;;;;;;1105.82;999.90;;;19.80;99.90;;;;;;5075808;28;20613;-69
2021/07/05 17:00:09;;;;;;;1068.57;994.33;;;19.70;99.90;;;;;;5075646;28;20240;-69
2021/07/05 17:02:39;;;;;;;1133.18;999.90;;;19.70;99.90;;;;;;5075608;28;20278;-69
2021/07/05 17:05:07;;;;;;;1077.80;997.95;;;19.60;99.90;;;;;;5075640;28;20200;-69
2021/07/05 17:07:33;;;;;;;1121.50;999.90;;;19.60;99.90;;;;;;5075709;28;20185;-69
2021/07/05 17:09:58;;;;;;;1134.72;999.90;;;19.60;99.90;;;;;;5075497;28;20266;-69
2021/07/05 17:12:24;;;;;;;1151.13;999.90;;;19.60;99.90;;;;;;5074240;28;20337;-69
2021/07/05 18:11:46;;;;;;;602.95;568.40;;;;;;;;;;5091160;28;20536;-69
2021/07/05 18:14:12;;;;;;;725.38;681.15;;;;;;;;;;5091164;28;20171;-69
2021/07/05 18:16:40;;;;;;;859.38;804.85;;;;;;;;;;5091060;28;20180;-69
2021/07/05 18:19:09;;;;;;;966.22;900.65;;;;;;;;;;5091035;28;20558;-69
